sensor_id;sensor_type;location;lat;lon;timestamp;P1;durP1;ratioP1;P2;durP2;ratioP2
14799;SDS011;7491;57.750;11.970;2023-08-06T00:01:27;8.38;;;2.47;;
14799;SDS011;7491;57.750;11.970;2023-08-06T00:03:54;6.60;;;2.63;;
14799;SDS011;7491;57.750;11.970;2023-08-06T00:06:21;10.02;;;2.65;;
14799;SDS011;7491;57.750;11.970;2023-08-06T00:08:48;4.45;;;2.53;;
14799;SDS011;7491;57.750;11.970;2023-08-06T00:11:15;6.22;;;2.47;;
14799;SDS011;7491;57.750;11.970;2023-08-06T00:13:42;2.75;;;2.25;;
14799;SDS011;7491;57.750;11.970;2023-08-06T00:16:09;5.40;;;2.90;;
14799;SDS011;7491;57.750;11.970;2023-08-06T00:18:39;7.53;;;2.55;;
14799;SDS011;7491;57.750;11.970;2023-08-06T00:21:06;4.57;;;2.63;;
14799;SDS011;7491;57.750;11.970;2023-08-06T00:23:33;3.35;;;2.65;;
14799;SDS011;7491;57.750;11.970;2023-08-06T00:25:59;6.60;;;2.70;;
14799;SDS011;7491;57.750;11.970;2023-08-06T00:28:26;5.90;;;2.80;;
14799;SDS011;7491;57.750;11.970;2023-08-06T00:30:53;3.35;;;2.80;;
14799;SDS011;7491;57.750;11.970;2023-08-06T00:33:20;7.20;;;2.97;;
14799;SDS011;7491;57.750;11.970;2023-08-06T00:35:48;8.63;;;3.35;;
14799;SDS011;7491;57.750;11.970;2023-08-06T00:38:15;3.97;;;2.50;;
14799;SDS011;7491;57.750;11.970;2023-08-06T00:40:42;5.72;;;2.10;;
14799;SDS011;7491;57.750;11.970;2023-08-06T00:43:08;4.05;;;2.58;;
14799;SDS011;7491;57.750;11.970;2023-08-06T00:45:37;6.93;;;2.53;;
14799;SDS011;7491;57.750;11.970;2023-08-06T00:48:04;3.45;;;2.50;;
14799;SDS011;7491;57.750;11.970;2023-08-06T00:50:31;4.35;;;2.20;;
14799;SDS011;7491;57.750;11.970;2023-08-06T00:53:00;5.10;;;2.50;;
14799;SDS011;7491;57.750;11.970;2023-08-06T00:55:28;3.13;;;2.50;;
14799;SDS011;7491;57.750;11.970;2023-08-06T00:57:56;2.78;;;2.30;;
14799;SDS011;7491;57.750;11.970;2023-08-06T01:00:24;6.72;;;2.60;;
14799;SDS011;7491;57.750;11.970;2023-08-06T01:02:51;4.63;;;2.67;;
14799;SDS011;7491;57.750;11.970;2023-08-06T01:05:18;3.78;;;2.05;;
14799;SDS011;7491;57.750;11.970;2023-08-06T01:07:48;8.85;;;2.80;;
14799;SDS011;7491;57.750;11.970;2023-08-06T01:10:26;7.50;;;2.70;;
14799;SDS011;7491;57.750;11.970;2023-08-06T01:13:05;6.68;;;2.35;;
14799;SDS011;7491;57.750;11.970;2023-08-06T01:15:43;5.32;;;2.38;;
14799;SDS011;7491;57.750;11.970;2023-08-06T01:18:13;3.63;;;2.40;;
14799;SDS011;7491;57.750;11.970;2023-08-06T01:20:41;3.30;;;2.30;;
14799;SDS011;7491;57.750;11.970;2023-08-06T01:23:08;3.15;;;2.55;;
14799;SDS011;7491;57.750;11.970;2023-08-06T01:25:35;4.00;;;2.20;;
14799;SDS011;7491;57.750;11.970;2023-08-06T01:28:10;4.00;;;2.42;;
14799;SDS011;7491;57.750;11.970;2023-08-06T01:30:42;3.67;;;2.03;;
14799;SDS011;7491;57.750;11.970;2023-08-06T01:33:12;5.13;;;2.67;;
14799;SDS011;7491;57.750;11.970;2023-08-06T01:35:45;6.18;;;2.50;;
14799;SDS011;7491;57.750;11.970;2023-08-06T01:38:14;5.47;;;2.35;;
14799;SDS011;7491;57.750;11.970;2023-08-06T01:40:41;5.03;;;2.50;;
14799;SDS011;7491;57.750;11.970;2023-08-06T01:43:07;5.32;;;2.00;;
14799;SDS011;7491;57.750;11.970;2023-08-06T01:45:35;7.97;;;2.33;;
14799;SDS011;7491;57.750;11.970;2023-08-06T01:48:02;2.67;;;2.30;;
14799;SDS011;7491;57.750;11.970;2023-08-06T01:50:29;5.95;;;2.65;;
14799;SDS011;7491;57.750;11.970;2023-08-06T01:52:57;6.60;;;2.97;;
14799;SDS011;7491;57.750;11.970;2023-08-06T01:55:24;3.20;;;2.30;;
14799;SDS011;7491;57.750;11.970;2023-08-06T01:57:50;3.83;;;2.72;;
14799;SDS011;7491;57.750;11.970;2023-08-06T02:00:17;4.22;;;2.33;;
14799;SDS011;7491;57.750;11.970;2023-08-06T02:02:44;5.55;;;2.30;;
14799;SDS011;7491;57.750;11.970;2023-08-06T02:05:11;4.40;;;2.33;;
14799;SDS011;7491;57.750;11.970;2023-08-06T02:07:37;5.88;;;2.40;;
14799;SDS011;7491;57.750;11.970;2023-08-06T02:10:08;4.50;;;2.55;;
14799;SDS011;7491;57.750;11.970;2023-08-06T02:12:34;3.83;;;2.53;;
14799;SDS011;7491;57.750;11.970;2023-08-06T02:15:01;4.32;;;2.45;;
14799;SDS011;7491;57.750;11.970;2023-08-06T02:17:28;5.70;;;3.00;;
14799;SDS011;7491;57.750;11.970;2023-08-06T02:19:55;6.75;;;2.60;;
14799;SDS011;7491;57.750;11.970;2023-08-06T02:22:22;4.40;;;2.40;;
14799;SDS011;7491;57.750;11.970;2023-08-06T02:24:49;4.22;;;2.90;;
14799;SDS011;7491;57.750;11.970;2023-08-06T02:27:17;2.53;;;2.28;;
14799;SDS011;7491;57.750;11.970;2023-08-06T02:29:44;5.28;;;2.50;;
14799;SDS011;7491;57.750;11.970;2023-08-06T02:32:11;2.50;;;2.22;;
14799;SDS011;7491;57.750;11.970;2023-08-06T02:34:38;3.45;;;2.60;;
14799;SDS011;7491;57.750;11.970;2023-08-06T02:37:04;3.53;;;2.70;;
14799;SDS011;7491;57.750;11.970;2023-08-06T02:39:31;5.20;;;2.78;;
14799;SDS011;7491;57.750;11.970;2023-08-06T02:41:58;4.10;;;2.65;;
14799;SDS011;7491;57.750;11.970;2023-08-06T02:44:28;5.68;;;2.72;;
14799;SDS011;7491;57.750;11.970;2023-08-06T02:46:55;4.88;;;2.78;;
14799;SDS011;7491;57.750;11.970;2023-08-06T02:49:21;5.13;;;3.05;;
14799;SDS011;7491;57.750;11.970;2023-08-06T02:51:48;4.30;;;2.70;;
14799;SDS011;7491;57.750;11.970;2023-08-06T02:54:15;5.20;;;3.25;;
14799;SDS011;7491;57.750;11.970;2023-08-06T02:56:43;3.72;;;2.75;;
14799;SDS011;7491;57.750;11.970;2023-08-06T02:59:11;5.10;;;3.22;;
14799;SDS011;7491;57.750;11.970;2023-08-06T03:01:39;8.43;;;2.90;;
14799;SDS011;7491;57.750;11.970;2023-08-06T03:04:06;4.07;;;2.80;;
14799;SDS011;7491;57.750;11.970;2023-08-06T03:06:33;6.57;;;2.80;;
14799;SDS011;7491;57.750;11.970;2023-08-06T03:09:00;4.70;;;2.95;;
14799;SDS011;7491;57.750;11.970;2023-08-06T03:11:28;12.00;;;2.95;;
14799;SDS011;7491;57.750;11.970;2023-08-06T03:13:55;4.38;;;2.60;;
14799;SDS011;7491;57.750;11.970;2023-08-06T03:16:22;4.38;;;2.70;;
14799;SDS011;7491;57.750;11.970;2023-08-06T03:18:50;3.72;;;2.47;;
14799;SDS011;7491;57.750;11.970;2023-08-06T03:21:16;8.50;;;2.80;;
14799;SDS011;7491;57.750;11.970;2023-08-06T03:23:43;7.00;;;2.65;;
14799;SDS011;7491;57.750;11.970;2023-08-06T03:26:13;4.40;;;2.33;;
14799;SDS011;7491;57.750;11.970;2023-08-06T03:28:39;4.93;;;2.78;;
14799;SDS011;7491;57.750;11.970;2023-08-06T03:31:06;9.23;;;3.00;;
14799;SDS011;7491;57.750;11.970;2023-08-06T03:33:34;7.05;;;2.67;;
14799;SDS011;7491;57.750;11.970;2023-08-06T03:36:02;4.13;;;2.42;;
14799;SDS011;7491;57.750;11.970;2023-08-06T03:38:29;3.72;;;2.63;;
14799;SDS011;7491;57.750;11.970;2023-08-06T03:40:56;5.30;;;2.40;;
14799;SDS011;7491;57.750;11.970;2023-08-06T03:43:23;4.93;;;2.63;;
14799;SDS011;7491;57.750;11.970;2023-08-06T03:45:50;3.65;;;2.60;;
14799;SDS011;7491;57.750;11.970;2023-08-06T03:48:16;3.53;;;2.40;;
14799;SDS011;7491;57.750;11.970;2023-08-06T03:50:44;3.70;;;2.20;;
14799;SDS011;7491;57.750;11.970;2023-08-06T03:53:12;4.40;;;2.58;;
14799;SDS011;7491;57.750;11.970;2023-08-06T03:55:39;3.47;;;2.22;;
14799;SDS011;7491;57.750;11.970;2023-08-06T03:58:05;5.05;;;2.78;;
14799;SDS011;7491;57.750;11.970;2023-08-06T04:00:32;3.75;;;2.63;;
14799;SDS011;7491;57.750;11.970;2023-08-06T04:02:59;5.68;;;3.03;;
14799;SDS011;7491;57.750;11.970;2023-08-06T04:05:26;2.45;;;2.25;;
14799;SDS011;7491;57.750;11.970;2023-08-06T04:07:52;3.10;;;2.35;;
14799;SDS011;7491;57.750;11.970;2023-08-06T04:10:20;2.63;;;2.28;;
14799;SDS011;7491;57.750;11.970;2023-08-06T04:12:47;2.83;;;2.25;;
14799;SDS011;7491;57.750;11.970;2023-08-06T04:15:14;4.30;;;2.30;;
14799;SDS011;7491;57.750;11.970;2023-08-06T04:17:41;5.20;;;2.75;;
14799;SDS011;7491;57.750;11.970;2023-08-06T04:20:08;2.42;;;2.05;;
14799;SDS011;7491;57.750;11.970;2023-08-06T04:22:35;5.15;;;2.97;;
14799;SDS011;7491;57.750;11.970;2023-08-06T04:25:02;3.15;;;2.25;;
14799;SDS011;7491;57.750;11.970;2023-08-06T04:27:30;4.90;;;2.53;;
14799;SDS011;7491;57.750;11.970;2023-08-06T04:29:57;7.30;;;2.50;;
14799;SDS011;7491;57.750;11.970;2023-08-06T04:32:23;2.97;;;2.25;;
14799;SDS011;7491;57.750;11.970;2023-08-06T04:34:51;2.85;;;2.10;;
14799;SDS011;7491;57.750;11.970;2023-08-06T04:37:17;5.15;;;2.20;;
14799;SDS011;7491;57.750;11.970;2023-08-06T04:39:44;3.30;;;2.10;;
14799;SDS011;7491;57.750;11.970;2023-08-06T04:42:11;3.67;;;2.38;;
14799;SDS011;7491;57.750;11.970;2023-08-06T04:44:39;4.90;;;2.53;;
14799;SDS011;7491;57.750;11.970;2023-08-06T04:47:06;5.85;;;2.53;;
14799;SDS011;7491;57.750;11.970;2023-08-06T04:49:33;4.78;;;2.30;;
14799;SDS011;7491;57.750;11.970;2023-08-06T04:51:59;2.72;;;2.47;;
14799;SDS011;7491;57.750;11.970;2023-08-06T04:54:26;4.70;;;2.13;;
14799;SDS011;7491;57.750;11.970;2023-08-06T04:56:53;4.63;;;2.70;;
14799;SDS011;7491;57.750;11.970;2023-08-06T04:59:20;4.38;;;2.88;;
14799;SDS011;7491;57.750;11.970;2023-08-06T05:01:48;3.20;;;2.05;;
14799;SDS011;7491;57.750;11.970;2023-08-06T05:04:15;3.47;;;2.20;;
14799;SDS011;7491;57.750;11.970;2023-08-06T05:06:41;3.80;;;2.00;;
14799;SDS011;7491;57.750;11.970;2023-08-06T05:09:08;2.42;;;2.00;;
14799;SDS011;7491;57.750;11.970;2023-08-06T05:11:35;3.58;;;1.90;;
14799;SDS011;7491;57.750;11.970;2023-08-06T05:14:01;3.80;;;2.08;;
14799;SDS011;7491;57.750;11.970;2023-08-06T05:16:28;4.63;;;2.13;;
14799;SDS011;7491;57.750;11.970;2023-08-06T05:18:56;2.83;;;1.80;;
14799;SDS011;7491;57.750;11.970;2023-08-06T05:21:23;2.28;;;2.03;;
14799;SDS011;7491;57.750;11.970;2023-08-06T05:23:50;1.92;;;1.83;;
14799;SDS011;7491;57.750;11.970;2023-08-06T05:26:16;2.25;;;1.70;;
14799;SDS011;7491;57.750;11.970;2023-08-06T05:28:44;4.32;;;1.88;;
14799;SDS011;7491;57.750;11.970;2023-08-06T05:31:11;2.83;;;1.67;;
14799;SDS011;7491;57.750;11.970;2023-08-06T05:33:39;5.38;;;2.10;;
14799;SDS011;7491;57.750;11.970;2023-08-06T05:36:07;2.47;;;1.77;;
14799;SDS011;7491;57.750;11.970;2023-08-06T05:38:33;7.13;;;2.45;;
14799;SDS011;7491;57.750;11.970;2023-08-06T05:41:00;5.88;;;1.92;;
14799;SDS011;7491;57.750;11.970;2023-08-06T05:43:27;2.70;;;2.03;;
14799;SDS011;7491;57.750;11.970;2023-08-06T05:45:53;2.05;;;1.77;;
14799;SDS011;7491;57.750;11.970;2023-08-06T05:48:20;5.65;;;2.05;;
14799;SDS011;7491;57.750;11.970;2023-08-06T05:50:49;3.20;;;1.80;;
14799;SDS011;7491;57.750;11.970;2023-08-06T05:53:18;2.67;;;2.15;;
14799;SDS011;7491;57.750;11.970;2023-08-06T05:55:44;4.63;;;2.03;;
14799;SDS011;7491;57.750;11.970;2023-08-06T05:58:11;2.53;;;1.58;;
14799;SDS011;7491;57.750;11.970;2023-08-06T06:00:38;6.13;;;1.88;;
14799;SDS011;7491;57.750;11.970;2023-08-06T06:03:05;2.47;;;1.80;;
14799;SDS011;7491;57.750;11.970;2023-08-06T06:05:31;2.67;;;1.70;;
14799;SDS011;7491;57.750;11.970;2023-08-06T06:07:58;2.53;;;1.80;;
14799;SDS011;7491;57.750;11.970;2023-08-06T06:10:27;6.10;;;1.90;;
14799;SDS011;7491;57.750;11.970;2023-08-06T06:12:53;2.03;;;1.70;;
14799;SDS011;7491;57.750;11.970;2023-08-06T06:15:20;2.25;;;1.50;;
14799;SDS011;7491;57.750;11.970;2023-08-06T06:17:47;3.20;;;2.10;;
14799;SDS011;7491;57.750;11.970;2023-08-06T06:20:14;2.03;;;1.73;;
14799;SDS011;7491;57.750;11.970;2023-08-06T06:22:41;2.42;;;2.10;;
14799;SDS011;7491;57.750;11.970;2023-08-06T06:25:08;2.60;;;1.42;;
14799;SDS011;7491;57.750;11.970;2023-08-06T06:27:37;3.13;;;1.70;;
14799;SDS011;7491;57.750;11.970;2023-08-06T06:30:04;3.47;;;1.77;;
14799;SDS011;7491;57.750;11.970;2023-08-06T06:32:32;4.75;;;1.80;;
14799;SDS011;7491;57.750;11.970;2023-08-06T06:34:59;2.60;;;1.60;;
14799;SDS011;7491;57.750;11.970;2023-08-06T06:37:26;2.70;;;1.63;;
14799;SDS011;7491;57.750;11.970;2023-08-06T06:39:52;3.25;;;1.90;;
14799;SDS011;7491;57.750;11.970;2023-08-06T06:42:19;1.65;;;1.40;;
14799;SDS011;7491;57.750;11.970;2023-08-06T06:44:49;2.20;;;1.95;;
14799;SDS011;7491;57.750;11.970;2023-08-06T06:47:16;2.38;;;1.50;;
14799;SDS011;7491;57.750;11.970;2023-08-06T06:49:42;1.52;;;1.40;;
14799;SDS011;7491;57.750;11.970;2023-08-06T06:52:09;4.97;;;1.98;;
14799;SDS011;7491;57.750;11.970;2023-08-06T06:54:36;2.60;;;1.40;;
14799;SDS011;7491;57.750;11.970;2023-08-06T06:57:03;2.88;;;1.50;;
14799;SDS011;7491;57.750;11.970;2023-08-06T06:59:31;1.88;;;1.50;;
14799;SDS011;7491;57.750;11.970;2023-08-06T07:01:59;3.38;;;1.60;;
14799;SDS011;7491;57.750;11.970;2023-08-06T07:04:26;2.70;;;1.40;;
14799;SDS011;7491;57.750;11.970;2023-08-06T07:06:52;1.60;;;1.50;;
14799;SDS011;7491;57.750;11.970;2023-08-06T07:09:19;3.33;;;1.30;;
14799;SDS011;7491;57.750;11.970;2023-08-06T07:11:46;2.03;;;1.40;;
14799;SDS011;7491;57.750;11.970;2023-08-06T07:14:13;1.40;;;1.30;;
14799;SDS011;7491;57.750;11.970;2023-08-06T07:16:40;2.60;;;1.33;;
14799;SDS011;7491;57.750;11.970;2023-08-06T07:19:08;1.65;;;1.40;;
14799;SDS011;7491;57.750;11.970;2023-08-06T07:21:35;3.28;;;1.38;;
14799;SDS011;7491;57.750;11.970;2023-08-06T07:24:02;4.13;;;1.63;;
14799;SDS011;7491;57.750;11.970;2023-08-06T07:26:28;5.07;;;1.80;;
14799;SDS011;7491;57.750;11.970;2023-08-06T07:28:55;1.58;;;1.40;;
14799;SDS011;7491;57.750;11.970;2023-08-06T07:31:22;3.95;;;1.40;;
14799;SDS011;7491;57.750;11.970;2023-08-06T07:33:49;6.63;;;1.38;;
14799;SDS011;7491;57.750;11.970;2023-08-06T07:36:18;2.17;;;1.20;;
14799;SDS011;7491;57.750;11.970;2023-08-06T07:38:44;4.65;;;1.50;;
14799;SDS011;7491;57.750;11.970;2023-08-06T07:41:12;1.83;;;1.30;;
14799;SDS011;7491;57.750;11.970;2023-08-06T07:43:39;2.75;;;1.67;;
14799;SDS011;7491;57.750;11.970;2023-08-06T07:46:07;3.20;;;1.25;;
14799;SDS011;7491;57.750;11.970;2023-08-06T07:48:34;1.52;;;1.25;;
14799;SDS011;7491;57.750;11.970;2023-08-06T07:51:01;2.08;;;1.48;;
14799;SDS011;7491;57.750;11.970;2023-08-06T07:53:29;1.65;;;1.30;;
14799;SDS011;7491;57.750;11.970;2023-08-06T07:55:56;1.65;;;1.30;;
14799;SDS011;7491;57.750;11.970;2023-08-06T07:58:23;1.88;;;1.40;;
14799;SDS011;7491;57.750;11.970;2023-08-06T08:00:51;1.42;;;1.15;;
14799;SDS011;7491;57.750;11.970;2023-08-06T08:03:18;4.20;;;1.50;;
14799;SDS011;7491;57.750;11.970;2023-08-06T08:05:45;3.88;;;1.23;;
14799;SDS011;7491;57.750;11.970;2023-08-06T08:08:12;2.05;;;1.33;;
14799;SDS011;7491;57.750;11.970;2023-08-06T08:10:40;1.42;;;1.15;;
14799;SDS011;7491;57.750;11.970;2023-08-06T08:13:08;2.10;;;1.38;;
14799;SDS011;7491;57.750;11.970;2023-08-06T08:15:35;4.00;;;1.35;;
14799;SDS011;7491;57.750;11.970;2023-08-06T08:18:02;2.70;;;1.10;;
14799;SDS011;7491;57.750;11.970;2023-08-06T08:20:28;2.22;;;1.40;;
14799;SDS011;7491;57.750;11.970;2023-08-06T08:22:57;2.55;;;1.30;;
14799;SDS011;7491;57.750;11.970;2023-08-06T08:25:25;3.45;;;1.50;;
14799;SDS011;7491;57.750;11.970;2023-08-06T08:27:53;2.42;;;1.30;;
14799;SDS011;7491;57.750;11.970;2023-08-06T08:30:20;3.30;;;1.10;;
14799;SDS011;7491;57.750;11.970;2023-08-06T08:32:47;2.75;;;0.98;;
14799;SDS011;7491;57.750;11.970;2023-08-06T08:35:14;2.58;;;1.27;;
14799;SDS011;7491;57.750;11.970;2023-08-06T08:37:41;3.45;;;1.10;;
14799;SDS011;7491;57.750;11.970;2023-08-06T08:40:09;3.28;;;1.10;;
14799;SDS011;7491;57.750;11.970;2023-08-06T08:42:36;3.78;;;1.20;;
14799;SDS011;7491;57.750;11.970;2023-08-06T08:45:05;3.45;;;1.10;;
14799;SDS011;7491;57.750;11.970;2023-08-06T08:47:37;1.70;;;1.10;;
14799;SDS011;7491;57.750;11.970;2023-08-06T08:50:05;1.55;;;1.13;;
14799;SDS011;7491;57.750;11.970;2023-08-06T08:52:34;3.72;;;1.30;;
14799;SDS011;7491;57.750;11.970;2023-08-06T08:55:02;3.50;;;1.23;;
14799;SDS011;7491;57.750;11.970;2023-08-06T08:57:29;4.38;;;1.10;;
14799;SDS011;7491;57.750;11.970;2023-08-06T08:59:56;4.32;;;1.17;;
14799;SDS011;7491;57.750;11.970;2023-08-06T09:02:24;3.35;;;1.60;;
14799;SDS011;7491;57.750;11.970;2023-08-06T09:04:54;3.92;;;1.27;;
14799;SDS011;7491;57.750;11.970;2023-08-06T09:07:24;2.90;;;1.27;;
14799;SDS011;7491;57.750;11.970;2023-08-06T09:09:52;3.50;;;1.45;;
14799;SDS011;7491;57.750;11.970;2023-08-06T09:12:20;3.13;;;1.33;;
14799;SDS011;7491;57.750;11.970;2023-08-06T09:14:47;1.85;;;1.30;;
14799;SDS011;7491;57.750;11.970;2023-08-06T09:17:14;1.60;;;1.00;;
14799;SDS011;7491;57.750;11.970;2023-08-06T09:19:46;1.40;;;1.30;;
14799;SDS011;7491;57.750;11.970;2023-08-06T09:22:14;3.30;;;1.27;;
14799;SDS011;7491;57.750;11.970;2023-08-06T09:24:41;1.80;;;1.17;;
14799;SDS011;7491;57.750;11.970;2023-08-06T09:27:11;1.85;;;1.17;;
14799;SDS011;7491;57.750;11.970;2023-08-06T09:29:40;2.03;;;1.15;;
14799;SDS011;7491;57.750;11.970;2023-08-06T09:32:08;2.67;;;1.10;;
14799;SDS011;7491;57.750;11.970;2023-08-06T09:34:35;1.95;;;1.00;;
14799;SDS011;7491;57.750;11.970;2023-08-06T09:37:12;2.28;;;1.02;;
14799;SDS011;7491;57.750;11.970;2023-08-06T09:39:39;2.97;;;1.17;;
14799;SDS011;7491;57.750;11.970;2023-08-06T09:42:06;4.72;;;1.15;;
14799;SDS011;7491;57.750;11.970;2023-08-06T09:44:33;2.22;;;1.10;;
14799;SDS011;7491;57.750;11.970;2023-08-06T09:47:04;1.42;;;1.08;;
14799;SDS011;7491;57.750;11.970;2023-08-06T09:49:40;0.95;;;0.85;;
14799;SDS011;7491;57.750;11.970;2023-08-06T09:52:15;1.20;;;0.98;;
14799;SDS011;7491;57.750;11.970;2023-08-06T09:54:45;1.02;;;0.95;;
14799;SDS011;7491;57.750;11.970;2023-08-06T10:00:01;2.95;;;2.20;;
14799;SDS011;7491;57.750;11.970;2023-08-06T10:02:29;2.50;;;1.20;;
14799;SDS011;7491;57.750;11.970;2023-08-06T10:04:59;2.75;;;1.20;;
14799;SDS011;7491;57.750;11.970;2023-08-06T10:07:27;3.92;;;2.15;;
14799;SDS011;7491;57.750;11.970;2023-08-06T10:09:56;1.70;;;1.15;;
14799;SDS011;7491;57.750;11.970;2023-08-06T10:12:23;4.18;;;1.10;;
14799;SDS011;7491;57.750;11.970;2023-08-06T10:14:51;2.95;;;1.10;;
14799;SDS011;7491;57.750;11.970;2023-08-06T10:17:23;2.40;;;1.23;;
14799;SDS011;7491;57.750;11.970;2023-08-06T10:19:55;2.30;;;1.30;;
14799;SDS011;7491;57.750;11.970;2023-08-06T10:22:23;4.25;;;1.30;;
14799;SDS011;7491;57.750;11.970;2023-08-06T10:24:54;2.22;;;1.13;;
14799;SDS011;7491;57.750;11.970;2023-08-06T10:27:27;2.10;;;1.25;;
14799;SDS011;7491;57.750;11.970;2023-08-06T10:29:56;1.20;;;1.10;;
14799;SDS011;7491;57.750;11.970;2023-08-06T10:32:32;2.88;;;1.38;;
14799;SDS011;7491;57.750;11.970;2023-08-06T10:35:27;3.80;;;1.73;;
14799;SDS011;7491;57.750;11.970;2023-08-06T10:37:57;1.38;;;1.13;;
14799;SDS011;7491;57.750;11.970;2023-08-06T10:40:41;3.53;;;1.27;;
14799;SDS011;7491;57.750;11.970;2023-08-06T10:43:24;4.20;;;1.77;;
14799;SDS011;7491;57.750;11.970;2023-08-06T10:45:52;2.13;;;1.27;;
14799;SDS011;7491;57.750;11.970;2023-08-06T10:48:28;3.88;;;1.23;;
14799;SDS011;7491;57.750;11.970;2023-08-06T10:50:56;1.27;;;1.17;;
14799;SDS011;7491;57.750;11.970;2023-08-06T10:53:23;2.13;;;1.20;;
14799;SDS011;7491;57.750;11.970;2023-08-06T10:56:01;1.45;;;1.30;;
14799;SDS011;7491;57.750;11.970;2023-08-06T10:58:43;3.72;;;1.33;;
14799;SDS011;7491;57.750;11.970;2023-08-06T11:01:13;4.68;;;1.27;;
14799;SDS011;7491;57.750;11.970;2023-08-06T11:03:41;3.92;;;1.40;;
14799;SDS011;7491;57.750;11.970;2023-08-06T11:06:16;3.63;;;1.38;;
14799;SDS011;7491;57.750;11.970;2023-08-06T11:08:47;2.22;;;1.35;;
14799;SDS011;7491;57.750;11.970;2023-08-06T11:11:20;4.38;;;1.40;;
14799;SDS011;7491;57.750;11.970;2023-08-06T11:13:51;1.85;;;1.20;;
14799;SDS011;7491;57.750;11.970;2023-08-06T11:16:25;1.90;;;1.20;;
14799;SDS011;7491;57.750;11.970;2023-08-06T11:18:53;2.00;;;1.60;;
14799;SDS011;7491;57.750;11.970;2023-08-06T11:21:24;2.28;;;1.55;;
14799;SDS011;7491;57.750;11.970;2023-08-06T11:23:51;3.53;;;1.33;;
14799;SDS011;7491;57.750;11.970;2023-08-06T11:26:20;1.95;;;1.35;;
14799;SDS011;7491;57.750;11.970;2023-08-06T11:28:48;2.15;;;1.38;;
14799;SDS011;7491;57.750;11.970;2023-08-06T11:31:26;2.65;;;1.13;;
14799;SDS011;7491;57.750;11.970;2023-08-06T11:34:18;1.88;;;1.58;;
14799;SDS011;7491;57.750;11.970;2023-08-06T11:36:45;4.07;;;1.55;;
14799;SDS011;7491;57.750;11.970;2023-08-06T11:39:11;1.50;;;1.40;;
14799;SDS011;7491;57.750;11.970;2023-08-06T11:41:40;2.17;;;1.67;;
14799;SDS011;7491;57.750;11.970;2023-08-06T11:44:07;2.45;;;1.52;;
14799;SDS011;7491;57.750;11.970;2023-08-06T11:46:51;1.30;;;1.10;;
14799;SDS011;7491;57.750;11.970;2023-08-06T11:49:20;3.83;;;1.33;;
14799;SDS011;7491;57.750;11.970;2023-08-06T11:54:35;4.30;;;1.40;;
14799;SDS011;7491;57.750;11.970;2023-08-06T11:57:08;3.83;;;1.50;;
14799;SDS011;7491;57.750;11.970;2023-08-06T11:59:37;2.92;;;1.10;;
14799;SDS011;7491;57.750;11.970;2023-08-06T12:02:04;3.08;;;1.38;;
14799;SDS011;7491;57.750;11.970;2023-08-06T12:04:31;2.72;;;1.30;;
14799;SDS011;7491;57.750;11.970;2023-08-06T12:07:17;3.22;;;1.33;;
14799;SDS011;7491;57.750;11.970;2023-08-06T12:09:43;3.15;;;1.50;;
14799;SDS011;7491;57.750;11.970;2023-08-06T12:12:11;2.10;;;1.35;;
14799;SDS011;7491;57.750;11.970;2023-08-06T12:14:38;2.97;;;1.38;;
14799;SDS011;7491;57.750;11.970;2023-08-06T12:17:04;3.00;;;1.90;;
14799;SDS011;7491;57.750;11.970;2023-08-06T12:19:31;2.38;;;1.20;;
14799;SDS011;7491;57.750;11.970;2023-08-06T12:21:58;3.90;;;1.73;;
14799;SDS011;7491;57.750;11.970;2023-08-06T12:24:25;1.58;;;1.40;;
14799;SDS011;7491;57.750;11.970;2023-08-06T12:26:56;2.38;;;1.30;;
14799;SDS011;7491;57.750;11.970;2023-08-06T12:29:24;3.58;;;1.50;;
14799;SDS011;7491;57.750;11.970;2023-08-06T12:31:53;1.48;;;1.20;;
14799;SDS011;7491;57.750;11.970;2023-08-06T12:34:22;2.20;;;1.30;;
14799;SDS011;7491;57.750;11.970;2023-08-06T12:36:49;1.77;;;1.20;;
14799;SDS011;7491;57.750;11.970;2023-08-06T12:39:16;5.35;;;1.45;;
14799;SDS011;7491;57.750;11.970;2023-08-06T12:41:42;2.75;;;1.40;;
14799;SDS011;7491;57.750;11.970;2023-08-06T12:44:11;2.13;;;1.40;;
14799;SDS011;7491;57.750;11.970;2023-08-06T12:46:39;2.72;;;1.55;;
14799;SDS011;7491;57.750;11.970;2023-08-06T12:49:06;2.53;;;1.40;;
14799;SDS011;7491;57.750;11.970;2023-08-06T12:51:32;4.72;;;1.60;;
14799;SDS011;7491;57.750;11.970;2023-08-06T12:54:00;3.75;;;1.30;;
14799;SDS011;7491;57.750;11.970;2023-08-06T12:56:27;1.95;;;1.27;;
14799;SDS011;7491;57.750;11.970;2023-08-06T12:58:54;1.77;;;1.33;;
14799;SDS011;7491;57.750;11.970;2023-08-06T13:01:20;6.32;;;1.58;;
14799;SDS011;7491;57.750;11.970;2023-08-06T13:03:49;4.43;;;1.40;;
14799;SDS011;7491;57.750;11.970;2023-08-06T13:06:15;3.20;;;1.83;;
14799;SDS011;7491;57.750;11.970;2023-08-06T13:08:42;1.48;;;1.38;;
14799;SDS011;7491;57.750;11.970;2023-08-06T13:11:09;4.35;;;1.83;;
14799;SDS011;7491;57.750;11.970;2023-08-06T13:13:35;2.85;;;1.52;;
14799;SDS011;7491;57.750;11.970;2023-08-06T13:16:02;2.55;;;1.30;;
14799;SDS011;7491;57.750;11.970;2023-08-06T13:18:30;2.08;;;1.30;;
14799;SDS011;7491;57.750;11.970;2023-08-06T13:20:58;3.75;;;1.40;;
14799;SDS011;7491;57.750;11.970;2023-08-06T13:23:25;2.25;;;1.40;;
14799;SDS011;7491;57.750;11.970;2023-08-06T13:25:53;3.53;;;1.42;;
14799;SDS011;7491;57.750;11.970;2023-08-06T13:28:20;3.63;;;1.48;;
14799;SDS011;7491;57.750;11.970;2023-08-06T13:30:47;1.65;;;1.33;;
14799;SDS011;7491;57.750;11.970;2023-08-06T13:33:14;3.67;;;1.33;;
14799;SDS011;7491;57.750;11.970;2023-08-06T13:35:40;2.28;;;1.27;;
14799;SDS011;7491;57.750;11.970;2023-08-06T13:38:09;2.72;;;1.30;;
14799;SDS011;7491;57.750;11.970;2023-08-06T13:40:45;4.85;;;1.50;;
14799;SDS011;7491;57.750;11.970;2023-08-06T13:43:11;3.13;;;1.30;;
14799;SDS011;7491;57.750;11.970;2023-08-06T13:45:38;1.73;;;1.20;;
14799;SDS011;7491;57.750;11.970;2023-08-06T13:48:05;2.55;;;1.60;;
14799;SDS011;7491;57.750;11.970;2023-08-06T13:50:32;4.47;;;1.30;;
14799;SDS011;7491;57.750;11.970;2023-08-06T13:52:59;1.05;;;0.90;;
14799;SDS011;7491;57.750;11.970;2023-08-06T13:55:28;1.27;;;1.20;;
14799;SDS011;7491;57.750;11.970;2023-08-06T13:57:55;2.55;;;1.13;;
14799;SDS011;7491;57.750;11.970;2023-08-06T14:00:22;2.95;;;1.25;;
14799;SDS011;7491;57.750;11.970;2023-08-06T14:02:49;2.35;;;1.10;;
14799;SDS011;7491;57.750;11.970;2023-08-06T14:05:16;2.08;;;1.20;;
14799;SDS011;7491;57.750;11.970;2023-08-06T14:07:45;1.38;;;1.05;;
14799;SDS011;7491;57.750;11.970;2023-08-06T14:10:12;3.83;;;1.60;;
14799;SDS011;7491;57.750;11.970;2023-08-06T14:12:40;1.40;;;1.30;;
14799;SDS011;7491;57.750;11.970;2023-08-06T14:15:07;2.20;;;1.10;;
14799;SDS011;7491;57.750;11.970;2023-08-06T14:17:55;3.08;;;1.27;;
14799;SDS011;7491;57.750;11.970;2023-08-06T14:20:26;1.45;;;1.35;;
14799;SDS011;7491;57.750;11.970;2023-08-06T14:22:53;1.73;;;1.23;;
14799;SDS011;7491;57.750;11.970;2023-08-06T14:25:20;3.08;;;1.27;;
14799;SDS011;7491;57.750;11.970;2023-08-06T14:27:48;2.60;;;1.00;;
14799;SDS011;7491;57.750;11.970;2023-08-06T14:30:15;4.07;;;1.13;;
14799;SDS011;7491;57.750;11.970;2023-08-06T14:32:42;2.30;;;1.10;;
14799;SDS011;7491;57.750;11.970;2023-08-06T14:35:08;1.58;;;0.90;;
14799;SDS011;7491;57.750;11.970;2023-08-06T14:37:35;3.95;;;1.35;;
14799;SDS011;7491;57.750;11.970;2023-08-06T14:40:02;4.05;;;1.20;;
14799;SDS011;7491;57.750;11.970;2023-08-06T14:42:29;2.55;;;1.58;;
14799;SDS011;7491;57.750;11.970;2023-08-06T14:45:00;1.75;;;1.10;;
14799;SDS011;7491;57.750;11.970;2023-08-06T14:47:26;3.45;;;1.52;;
14799;SDS011;7491;57.750;11.970;2023-08-06T14:49:53;2.10;;;1.20;;
14799;SDS011;7491;57.750;11.970;2023-08-06T14:52:21;2.22;;;1.23;;
14799;SDS011;7491;57.750;11.970;2023-08-06T14:54:48;2.05;;;1.23;;
14799;SDS011;7491;57.750;11.970;2023-08-06T14:57:17;3.80;;;1.27;;
14799;SDS011;7491;57.750;11.970;2023-08-06T14:59:47;1.75;;;1.38;;